Time;durP1;ratioP1;P1;durP2;ratioP2;P2;SDS_P1;SDS_P2;PMS_P1;PMS_P2;Temp;Humidity;BMP_temperature;BMP_pressure;BME280_temperature;BME280_humidity;BME280_pressure;Samples;Min_cycle;Max_cycle;Signal;HPM_P1;HPM_P2
2023/01/14 00:02:00;;;;;;;21.63;10.15;;;;;;;4.68;77.78;99860.69;4967174;28;20025;-96
2023/01/14 00:04:55;;;;;;;14.48;8.68;;;;;;;4.81;77.20;99857.88;4968608;28;20037;-96
2023/01/14 00:10:25;;;;;;;14.10;8.07;;;;;;;4.93;75.71;99844.66;4977039;28;20044;-96
2023/01/14 00:16:19;;;;;;;14.85;8.82;;;;;;;5.09;75.56;99864.63;4962421;28;20046;-95
2023/01/14 00:19:18;;;;;;;16.98;9.60;;;;;;;4.93;75.25;99841.19;4943602;28;20410;-96
2023/01/14 00:21:50;;;;;;;15.30;8.55;;;;;;;4.95;75.84;99837.25;4920814;29;20039;-96
2023/01/14 00:24:27;;;;;;;17.92;9.52;;;;;;;4.96;76.23;99851.41;4887031;29;20036;-96
2023/01/14 00:27:16;;;;;;;16.15;9.60;;;;;;;4.89;76.57;99847.97;4886812;29;20091;-96
2023/01/14 00:29:50;;;;;;;16.60;10.75;;;;;;;5.01;76.86;99860.38;4864378;29;20052;-95
2023/01/14 00:32:37;;;;;;;23.23;12.10;;;;;;;5.21;75.67;99876.22;4882902;29;20033;-96
2023/01/14 00:35:34;;;;;;;23.50;12.45;;;;;;;4.79;75.73;99862.66;4882855;29;20032;-96
2023/01/14 00:38:39;;;;;;;;;;;;;;;;;;;;;
2023/01/14 00:41:24;;;;;;;;;;;;;;;;;;;;;
2023/01/14 00:44:25;;;;;;;19.98;10.18;;;;;;;4.93;74.76;99843.84;4884225;29;20044;-95
2023/01/14 00:47:00;;;;;;;17.73;9.90;;;;;;;4.94;74.67;99853.47;4877731;29;20040;-96
2023/01/14 00:49:39;;;;;;;20.98;10.23;;;;;;;4.83;75.61;99855.81;4937203;29;20165;-96
2023/01/14 00:52:07;;;;;;;18.83;10.73;;;;;;;4.64;75.30;99846.16;4938694;28;20058;-96
2023/01/14 00:57:37;;;;;;;18.85;10.93;;;;;;;4.78;75.95;99884.22;4983025;28;20081;-96
2023/01/14 01:00:17;;;;;;;19.42;11.10;;;;;;;4.77;76.12;99877.22;4943923;28;20034;-96
2023/01/14 01:03:03;;;;;;;21.17;11.95;;;;;;;4.62;76.41;99862.34;4960890;28;20043;-96
2023/01/14 01:06:09;;;;;;;27.20;11.90;;;;;;;4.73;77.06;99887.53;4947297;28;20037;-96
2023/01/14 01:09:01;;;;;;;21.27;10.82;;;;;;;4.72;76.88;99872.53;4959458;28;20039;-96
2023/01/14 01:11:32;;;;;;;18.90;11.05;;;;;;;4.84;76.02;99878.00;4944975;28;20027;-96
2023/01/14 01:14:11;;;;;;;26.07;11.90;;;;;;;4.73;76.02;99860.00;4943669;28;20471;-96
2023/01/14 01:16:45;;;;;;;18.80;11.50;;;;;;;4.48;77.21;99866.16;4942627;28;20059;-96
2023/01/14 01:22:16;;;;;;;20.55;11.90;;;;;;;4.74;76.43;99864.34;4983244;28;20530;-96
2023/01/14 01:24:45;;;;;;;19.52;12.00;;;;;;;4.70;75.96;99847.94;4984122;28;20022;-96
2023/01/14 01:27:17;;;;;;;22.23;11.57;;;;;;;4.74;76.32;99857.13;4968295;28;20026;-96
2023/01/14 01:30:17;;;;;;;22.73;12.75;;;;;;;4.80;76.44;99866.94;4969505;28;20049;-96
2023/01/14 01:32:51;;;;;;;19.27;11.27;;;;;;;4.60;76.26;99845.75;4991946;28;20034;-96
2023/01/14 01:35:27;;;;;;;;;;;;;;;;;;;;;
2023/01/14 01:37:56;;;;;;;20.83;12.02;;;;;;;4.82;76.04;99867.53;4989134;28;20108;-96
2023/01/14 01:40:51;;;;;;;25.23;12.13;;;;;;;4.71;75.66;99852.25;4985105;28;20385;-96
2023/01/14 01:43:27;;;;;;;19.55;10.90;;;;;;;4.75;76.02;99860.63;4987775;28;20412;-96
2023/01/14 01:46:07;;;;;;;18.15;10.48;;;;;;;4.72;75.84;99855.72;4984422;28;20108;-95
2023/01/14 01:48:44;;;;;;;18.58;9.90;;;;;;;4.71;75.29;99843.41;4969298;28;20037;-96
2023/01/14 01:52:02;;;;;;;19.23;10.80;;;;;;;4.57;75.26;99832.88;4970439;28;20026;-96
2023/01/14 01:54:54;;;;;;;18.45;10.23;;;;;;;4.82;74.78;99859.53;4994340;28;20038;-96
2023/01/14 01:57:26;;;;;;;;;;;;;;;4.87;74.71;99874.88;4970978;28;20533;-95
2023/01/14 02:00:05;;;;;;;20.65;9.50;;;;;;;4.52;75.05;99838.03;4985070;28;19909;-96
2023/01/14 02:02:37;;;;;;;15.48;9.30;;;;;;;4.66;75.64;99874.22;4968556;28;20045;-96
2023/01/14 02:08:51;;;;;;;19.05;8.52;;;;;;;4.39;76.33;99856.78;5001485;28;19920;-96
2023/01/14 02:11:30;;;;;;;16.50;8.55;;;;;;;4.59;76.45;99865.47;4991767;28;20041;-96
2023/01/14 02:14:24;;;;;;;15.40;8.57;;;;;;;4.82;75.78;99867.53;4985245;28;20046;-96
2023/01/14 02:17:24;;;;;;;15.18;8.07;;;;;;;4.93;75.78;99881.19;5001236;28;20029;-96
2023/01/14 02:20:21;;;;;;;14.52;8.18;;;;;;;5.03;75.28;99876.19;4985722;28;20089;-96
2023/01/14 02:26:15;;;;;;;13.77;7.65;;;;;;;4.91;75.12;99865.41;5004703;28;20037;-96
2023/01/14 02:29:09;;;;;;;;;;;;;;;;;;;;;
2023/01/14 02:31:58;;;;;;;10.23;6.10;;;;;;;4.89;75.17;99837.31;4988561;28;20100;-96
2023/01/14 02:35:15;;;;;;;15.38;8.70;;;;;;;4.82;75.66;99840.84;4999556;28;20137;-95
2023/01/14 02:38:14;;;;;;;14.07;8.70;;;;;;;4.88;76.91;99873.03;4973417;28;20069;-96
2023/01/14 02:41:12;;;;;;;18.92;10.35;;;;;;;4.74;76.67;99846.47;4960746;28;20084;-96
2023/01/14 02:47:07;;;;;;;24.60;11.00;;;;;;;4.69;75.57;99818.81;4963041;28;20054;-95
2023/01/14 02:49:54;;;;;;;17.25;9.77;;;;;;;4.82;75.54;99840.84;4969518;28;20076;-95
2023/01/14 02:52:53;;;;;;;;;;;;;;;;;;;;;
2023/01/14 02:55:42;;;;;;;17.08;9.80;;;;;;;4.65;76.54;99832.59;4976238;28;20038;-95
2023/01/14 02:58:34;;;;;;;19.17;10.82;;;;;;;4.66;76.92;99844.88;4949704;28;20029;-96
2023/01/14 03:01:43;;;;;;;17.95;9.95;;;;;;;4.68;77.54;99860.69;4965638;28;20172;-96
2023/01/14 03:04:31;;;;;;;19.55;10.32;;;;;;;4.62;77.41;99858.88;4980146;28;20030;-96
2023/01/14 03:07:08;;;;;;;16.85;9.40;;;;;;;4.71;77.76;99856.75;4980980;28;20034;-96
2023/01/14 03:10:42;;;;;;;18.45;8.25;;;;;;;4.64;77.15;99852.28;4981175;28;20018;-96
2023/01/14 03:13:40;;;;;;;11.55;6.88;;;;;;;4.67;77.77;99848.38;4943852;28;20476;-96
2023/01/14 03:16:40;;;;;;;11.23;6.55;;;;;;;4.75;77.57;99852.63;4965110;28;20038;-96
2023/01/14 03:19:48;;;;;;;10.55;6.55;;;;;;;4.62;76.91;99824.22;4964113;28;20038;-96
2023/01/14 03:22:19;;;;;;;12.68;6.13;;;;;;;4.65;76.77;99829.13;4967342;28;20409;-96
2023/01/14 03:25:11;;;;;;;11.85;6.35;;;;;;;4.58;76.78;99823.00;4937138;29;20036;-96
2023/01/14 03:27:59;;;;;;;;;;;;;;;;;;;;;
2023/01/14 03:30:28;;;;;;;12.98;7.25;;;;;;;4.47;77.65;99819.19;4885148;29;20066;-96
2023/01/14 03:36:15;;;;;;;13.82;6.45;;;;;;;4.49;77.26;99832.31;4887148;29;20095;-96
2023/01/14 03:39:12;;;;;;;17.25;7.05;;;;;;;4.24;78.31;99812.59;4884784;29;20040;-96
2023/01/14 03:45:10;;;;;;;;;;;;;;;;;;;;;
2023/01/14 03:50:53;;;;;;;13.00;6.35;;;;;;;4.11;79.18;99810.03;4925552;29;20075;-96
2023/01/14 03:53:39;;;;;;;16.17;6.00;;;;;;;4.38;78.39;99836.47;4905835;29;20048;-96
2023/01/14 03:56:20;;;;;;;12.70;6.55;;;;;;;4.46;78.56;99836.22;4933312;29;20041;-95
2023/01/14 03:59:02;;;;;;;12.60;6.68;;;;;;;4.52;78.26;99837.22;4980950;28;20052;-96
2023/01/14 04:01:53;;;;;;;11.30;5.78;;;;;;;4.37;78.22;99822.34;4947721;28;20064;-95
2023/01/14 04:04:25;;;;;;;14.25;7.28;;;;;;;4.34;78.32;99827.31;4950601;28;20437;-95
2023/01/14 04:07:17;;;;;;;13.93;7.07;;;;;;;4.18;78.52;99815.31;4947343;28;20042;-96
2023/01/14 04:10:03;;;;;;;12.45;6.28;;;;;;;4.29;78.34;99838.59;4963867;28;20042;-96
2023/01/14 04:15:20;;;;;;;12.75;7.13;;;;;;;4.23;79.02;99839.47;4949931;28;20041;-96
2023/01/14 04:15:49;;;;;;;14.35;6.85;;;;;;;4.20;78.70;99815.91;4936393;29;20214;-95
2023/01/14 04:18:50;;;;;;;16.02;7.30;;;;;;;4.34;78.04;99828.13;4926031;29;20051;-96
2023/01/14 04:21:27;;;;;;;13.75;6.85;;;;;;;4.39;79.05;99833.59;4922532;29;20130;-96
2023/01/14 04:24:04;;;;;;;15.82;7.85;;;;;;;4.36;78.26;99825.25;4909510;29;20079;-96
2023/01/14 04:26:57;;;;;;;14.88;6.70;;;;;;;4.56;77.95;99827.75;4911499;29;20035;-96
2023/01/14 04:29:40;;;;;;;;;;;;;;;4.80;77.23;99848.25;4934751;29;20582;-96
2023/01/14 04:32:19;;;;;;;11.48;5.10;;;;;;;4.81;76.98;99849.88;4922683;29;19915;-96
2023/01/14 04:34:57;;;;;;;10.70;5.20;;;;;;;4.78;77.60;99839.66;4908488;29;20473;-96
2023/01/14 04:37:50;;;;;;;11.45;5.53;;;;;;;4.52;77.79;99824.69;4925699;29;20055;-96
2023/01/14 04:40:22;;;;;;;11.55;5.50;;;;;;;4.69;77.59;99842.81;4911907;29;20050;-96
2023/01/14 04:42:53;;;;;;;10.75;5.75;;;;;;;4.68;77.10;99836.66;4924005;29;20042;-96
2023/01/14 04:45:46;;;;;;;12.02;5.93;;;;;;;4.74;77.39;99853.66;4924157;29;20105;-96
2023/01/14 04:48:22;;;;;;;11.50;6.53;;;;;;;4.66;77.68;99833.41;4911878;29;20066;-96
2023/01/14 04:50:56;;;;;;;10.60;6.18;;;;;;;4.60;77.42;99824.41;4911026;29;20058;-96
2023/01/14 04:53:40;;;;;;;15.05;7.15;;;;;;;4.62;77.19;99821.53;4955419;28;20043;-96
2023/01/14 04:56:12;;;;;;;12.10;6.28;;;;;;;4.65;75.96;99827.25;4948800;28;20045;-96
2023/01/14 04:58:57;;;;;;;10.88;6.05;;;;;;;4.64;76.58;99832.81;4963414;28;20031;-96
2023/01/14 05:01:46;;;;;;;16.35;6.60;;;;;;;4.44;77.39;99827.63;4972668;28;20037;-95
2023/01/14 05:04:27;;;;;;;12.82;6.05;;;;;;;4.59;77.95;99852.13;5003186;28;20029;-96
2023/01/14 05:07:17;;;;;;;12.10;6.03;;;;;;;4.64;77.30;99840.81;4988260;28;20025;-95
2023/01/14 05:09:46;;;;;;;13.45;6.30;;;;;;;4.57;78.27;99843.53;5003426;28;20105;-96
2023/01/14 05:12:24;;;;;;;13.60;5.88;;;;;;;4.61;78.18;99847.41;4986244;28;20037;-96
2023/01/14 05:14:55;;;;;;;11.80;6.53;;;;;;;4.56;78.01;99833.06;4986536;28;20476;-96
2023/01/14 05:17:29;;;;;;;12.57;6.80;;;;;;;4.54;77.66;99840.47;4985702;28;20496;-96
2023/01/14 05:20:08;;;;;;;19.67;6.85;;;;;;;4.55;78.06;99845.59;5002394;28;20132;-96
2023/01/14 05:22:46;;;;;;;14.10;6.93;;;;;;;4.45;78.13;99847.94;4987560;28;20385;-96
2023/01/14 05:25:13;;;;;;;13.52;6.30;;;;;;;4.38;78.43;99829.31;4986098;28;20045;-96
2023/01/14 05:27:44;;;;;;;12.77;7.15;;;;;;;4.30;78.28;99818.13;4985708;28;20468;-96
2023/01/14 05:30:29;;;;;;;16.95;7.50;;;;;;;4.25;78.77;99821.41;4999496;28;20053;-96
2023/01/14 05:33:15;;;;;;;16.05;7.00;;;;;;;4.25;78.85;99832.06;4966310;28;20038;-96
2023/01/14 05:36:06;;;;;;;13.30;7.75;;;;;;;4.14;79.12;99822.91;4965293;28;20084;-96
2023/01/14 05:38:35;;;;;;;15.93;8.35;;;;;;;4.10;79.29;99813.72;4924415;29;20036;-96
2023/01/14 05:41:44;;;;;;;;;;;;;;;;;;;;;
2023/01/14 05:47:44;;;;;;;11.82;5.95;;;;;;;4.22;79.27;99809.34;4941252;29;20079;-96
2023/01/14 05:50:50;;;;;;;14.50;7.15;;;;;;;4.30;79.40;99805.59;4940362;29;20134;-96
2023/01/14 05:54:26;;;;;;;16.63;6.68;;;;;;;4.38;78.18;99831.16;4940061;29;20262;-96
2023/01/14 06:10:01;;;;;;;13.65;6.53;;;;;;;4.30;78.20;99794.13;5004117;28;20069;-96
2023/01/14 06:16:07;;;;;;;;;;;;;;;;;;;;;
2023/01/14 06:22:26;;;;;;;;;;;;;;;;;;;;;
2023/01/14 06:25:50;;;;;;;16.38;7.30;;;;;;;4.48;78.82;99825.34;4965206;28;20045;-95
2023/01/14 06:29:17;;;;;;;;;;;;;;;;;;;;;
2023/01/14 06:32:14;;;;;;;16.05;7.32;;;;;;;4.51;78.46;99825.72;4879290;29;20150;-96
2023/01/14 06:35:01;;;;;;;16.48;7.13;;;;;;;4.57;78.63;99830.19;4903383;29;20415;-96
2023/01/14 06:37:27;;;;;;;15.98;7.82;;;;;;;4.42;78.01;99806.53;4874711;29;20036;-96
2023/01/14 06:39:53;;;;;;;21.40;8.93;;;;;;;4.59;78.44;99830.81;4888596;29;20083;-96
2023/01/14 06:42:30;;;;;;;16.52;7.63;;;;;;;4.42;78.29;99806.53;4889893;29;20104;-96
2023/01/14 06:45:05;;;;;;;19.63;8.07;;;;;;;4.50;78.39;99816.09;4890166;29;20047;-96
2023/01/14 06:47:34;;;;;;;18.67;8.15;;;;;;;4.44;78.58;99809.78;4889042;29;20104;-96
2023/01/14 06:50:07;;;;;;;33.58;12.57;;;;;;;4.54;78.19;99833.28;4889384;29;20514;-96
2023/01/14 06:52:38;;;;;;;21.60;9.45;;;;;;;4.40;79.09;99807.75;4913758;29;20050;-96
2023/01/14 06:55:07;;;;;;;19.00;8.90;;;;;;;4.45;79.07;99815.94;4929195;29;20030;-96
2023/01/14 06:57:36;;;;;;;19.60;8.82;;;;;;;4.72;77.96;99834.38;4929968;28;20057;-96
2023/01/14 07:00:02;;;;;;;23.23;10.38;;;;;;;4.68;77.49;99823.34;4962011;28;20116;-96
2023/01/14 07:02:28;;;;;;;20.67;9.23;;;;;;;4.55;78.30;99818.13;4978024;28;20037;-95
2023/01/14 07:04:57;;;;;;;19.52;8.63;;;;;;;4.61;77.53;99807.41;4988207;28;20526;-96
2023/01/14 07:07:23;;;;;;;14.60;6.97;;;;;;;4.73;77.05;99817.34;4987584;28;20017;-96
2023/01/14 07:09:55;;;;;;;21.58;9.10;;;;;;;4.79;77.45;99837.81;4987615;28;20037;-96
2023/01/14 07:12:29;;;;;;;18.98;8.57;;;;;;;4.82;77.21;99835.53;4987827;28;20033;-96
2023/01/14 07:14:57;;;;;;;17.95;8.73;;;;;;;4.79;76.59;99819.97;4988371;28;20029;-96
2023/01/14 07:17:23;;;;;;;13.38;7.90;;;;;;;4.70;76.87;99815.13;4989086;28;20052;-96
2023/01/14 07:19:52;;;;;;;22.25;12.18;;;;;;;4.93;75.05;99825.16;4988549;28;20107;-96
2023/01/14 07:22:20;;;;;;;16.83;10.52;;;;;;;5.09;75.61;99845.94;4989892;28;20068;-96
2023/01/14 07:24:49;;;;;;;15.35;7.93;;;;;;;5.09;75.76;99839.81;4988698;28;20190;-96
2023/01/14 07:27:17;;;;;;;14.23;8.40;;;;;;;5.03;76.36;99847.63;4988999;28;20462;-96
2023/01/14 07:29:52;;;;;;;14.07;7.82;;;;;;;5.01;75.97;99835.56;4988718;28;20054;-96
2023/01/14 07:32:18;;;;;;;12.48;7.20;;;;;;;4.94;75.39;99830.28;4989323;28;20013;-95
2023/01/14 07:34:44;;;;;;;16.27;7.53;;;;;;;4.92;75.18;99831.53;4986480;28;20029;-96
2023/01/14 07:37:12;;;;;;;19.63;9.32;;;;;;;4.85;75.22;99821.72;4988182;28;20116;-96
2023/01/14 07:39:41;;;;;;;14.48;7.55;;;;;;;5.02;75.69;99855.84;4988581;28;20037;-96
2023/01/14 07:42:07;;;;;;;13.45;6.57;;;;;;;4.80;75.92;99829.59;4988008;28;20026;-96
2023/01/14 07:44:36;;;;;;;15.70;7.97;;;;;;;4.90;75.49;99830.94;4987903;28;20040;-96
2023/01/14 07:47:02;;;;;;;17.98;8.93;;;;;;;4.71;76.05;99816.75;4987238;28;20021;-96
2023/01/14 07:49:33;;;;;;;23.83;9.93;;;;;;;4.79;75.95;99825.31;4988100;28;20029;-96
2023/01/14 07:52:02;;;;;;;19.95;9.60;;;;;;;4.89;76.46;99843.47;4987617;28;20067;-96
2023/01/14 07:54:31;;;;;;;21.63;9.77;;;;;;;4.89;76.10;99859.47;4987544;28;20124;-96
2023/01/14 07:56:59;;;;;;;21.30;10.85;;;;;;;4.71;76.82;99846.06;4987760;28;20098;-96
2023/01/14 07:59:28;;;;;;;17.75;9.13;;;;;;;4.67;76.84;99840.38;4989150;28;20049;-96
2023/01/14 08:01:54;;;;;;;20.80;9.18;;;;;;;4.78;75.98;99855.66;4988829;28;20048;-96
2023/01/14 08:04:20;;;;;;;17.88;7.90;;;;;;;4.88;75.88;99873.03;4987880;28;20025;-96
2023/01/14 08:06:46;;;;;;;21.42;9.30;;;;;;;4.73;76.20;99854.69;4986515;28;20034;-96
2023/01/14 08:09:12;;;;;;;20.63;9.23;;;;;;;4.84;76.43;99875.34;4987613;28;20030;-96
2023/01/14 08:11:38;;;;;;;20.85;10.57;;;;;;;4.85;75.90;99866.28;4987297;28;20025;-96
2023/01/14 08:14:16;;;;;;;19.15;7.88;;;;;;;4.88;75.22;99863.19;4987028;28;20451;-96
2023/01/14 08:16:42;;;;;;;15.50;8.02;;;;;;;5.12;75.39;99882.88;4987819;28;20021;-96
2023/01/14 08:19:09;;;;;;;16.48;8.00;;;;;;;5.02;74.78;99880.72;4986476;28;20033;-96
2023/01/14 08:21:38;;;;;;;19.23;8.98;;;;;;;5.06;75.70;99892.59;4987207;28;20447;-95
2023/01/14 08:24:04;;;;;;;19.27;9.02;;;;;;;5.11;74.75;99896.44;4986336;28;20040;-96
2023/01/14 08:26:34;;;;;;;17.45;7.78;;;;;;;5.05;75.24;99885.59;4987452;28;20068;-96
2023/01/14 08:29:04;;;;;;;15.70;8.52;;;;;;;4.83;75.63;99874.50;4986643;28;20045;-96
2023/01/14 08:31:33;;;;;;;18.15;8.43;;;;;;;5.10;74.51;99892.13;4989301;28;20099;-96
2023/01/14 08:33:59;;;;;;;20.90;9.63;;;;;;;5.26;74.13;99899.56;4989144;28;20090;-96
2023/01/14 08:36:25;;;;;;;15.60;7.15;;;;;;;5.10;74.37;99884.13;4985414;28;20026;-96
2023/01/14 08:38:57;;;;;;;22.40;8.32;;;;;;;5.21;74.24;99886.09;4985359;28;20053;-96
2023/01/14 08:41:26;;;;;;;13.60;7.10;;;;;;;5.31;73.84;99888.22;4987664;28;20029;-96
2023/01/14 08:43:54;;;;;;;19.58;10.15;;;;;;;5.42;74.24;99904.34;4987230;28;20056;-96
2023/01/14 08:46:20;;;;;;;18.52;8.88;;;;;;;5.40;73.17;99890.41;4986600;28;20032;-94
2023/01/14 08:48:51;;;;;;;19.33;9.50;;;;;;;5.49;73.98;99898.94;4985798;28;20061;-96
2023/01/14 08:51:20;;;;;;;21.13;10.93;;;;;;;5.32;74.61;99887.22;4987575;28;20411;-96
2023/01/14 08:53:46;;;;;;;20.33;11.27;;;;;;;5.46;73.38;99896.72;4988763;28;20021;-96
2023/01/14 08:56:20;;;;;;;23.27;10.70;;;;;;;5.25;73.66;99880.09;4987503;28;20048;-96
2023/01/14 08:58:50;;;;;;;22.10;9.88;;;;;;;5.39;72.79;99891.41;4986212;28;20021;-96
2023/01/14 09:01:16;;;;;;;22.70;9.27;;;;;;;5.26;73.33;99896.91;4987423;28;20215;-96
2023/01/14 09:03:46;;;;;;;23.13;10.88;;;;;;;5.42;73.39;99904.34;4987443;28;20031;-95
2023/01/14 09:06:14;;;;;;;17.98;8.82;;;;;;;5.39;73.24;99928.00;4987367;28;20030;-94
2023/01/14 09:17:19;;;;;;;19.65;10.10;;;;;;;5.31;73.80;99912.25;5010245;28;20048;-96
2023/01/14 09:23:17;;;;;;;21.90;11.27;;;;;;;5.21;74.24;99891.44;5223206;23;20062;-96
2023/01/14 09:25:43;;;;;;;26.55;11.57;;;;;;;5.22;74.12;99893.84;4984269;28;20069;-95
2023/01/14 09:28:11;;;;;;;22.58;11.07;;;;;;;5.30;74.01;99908.78;4977758;28;20125;-95
2023/01/14 09:30:37;;;;;;;20.42;9.73;;;;;;;5.27;73.98;99911.88;4960944;28;20030;-95
2023/01/14 09:33:08;;;;;;;25.35;11.02;;;;;;;5.41;74.50;99910.72;4965822;28;20030;-96
2023/01/14 09:35:34;;;;;;;18.45;10.10;;;;;;;5.30;73.67;99881.28;4965547;28;20056;-96
2023/01/14 09:38:10;;;;;;;19.23;9.30;;;;;;;5.42;73.48;99891.00;4947489;28;20504;-96
2023/01/14 09:40:40;;;;;;;19.42;9.18;;;;;;;5.37;72.70;99901.50;4948619;28;20060;-96
2023/01/14 09:43:11;;;;;;;15.25;8.70;;;;;;;5.37;73.05;99888.16;4966043;28;20026;-96
2023/01/14 09:46:00;;;;;;;15.55;8.75;;;;;;;5.44;73.83;99901.47;4984009;28;20077;-96
2023/01/14 09:48:27;;;;;;;18.00;10.32;;;;;;;5.16;73.82;99893.94;4945263;28;20436;-96
2023/01/14 09:51:16;;;;;;;23.80;12.18;;;;;;;5.25;73.38;99876.59;4945949;28;20137;-96
2023/01/14 09:54:09;;;;;;;17.25;9.27;;;;;;;5.55;72.71;99918.59;4967948;28;20069;-96
2023/01/14 09:56:42;;;;;;;20.27;10.10;;;;;;;5.24;73.99;99889.13;4952180;28;20118;-96
2023/01/14 09:59:21;;;;;;;18.13;9.50;;;;;;;5.35;74.18;99902.78;4950696;28;20041;-96
2023/01/14 10:01:59;;;;;;;23.50;10.63;;;;;;;5.33;74.14;99905.66;4952303;28;20037;-96
2023/01/14 10:05:34;;;;;;;21.88;9.90;;;;;;;5.17;75.20;99891.03;4967477;28;20513;-96
2023/01/14 10:08:01;;;;;;;25.08;10.70;;;;;;;5.24;75.56;99910.47;4924883;29;20122;-96
2023/01/14 10:10:29;;;;;;;26.00;11.30;;;;;;;5.21;75.10;99894.09;4924736;29;20058;-96
2023/01/14 10:12:59;;;;;;;86.50;46.10;;;;;;;5.09;75.98;99891.31;4939483;28;20042;-96
2023/01/14 10:15:32;;;;;;;23.65;10.25;;;;;;;5.24;75.71;99917.66;4949441;28;20026;-96
2023/01/14 10:18:21;;;;;;;18.17;9.20;;;;;;;5.28;75.91;99918.06;4962997;28;20440;-96
2023/01/14 10:21:38;;;;;;;22.35;8.95;;;;;;;5.16;75.84;99884.06;5001817;28;20491;-95
2023/01/14 10:24:25;;;;;;;18.23;9.35;;;;;;;5.16;76.00;99904.59;4990597;28;20102;-96
2023/01/14 10:27:22;;;;;;;23.30;10.15;;;;;;;5.20;76.69;99882.56;4991774;28;20039;-96
2023/01/14 10:29:48;;;;;;;20.08;9.80;;;;;;;5.42;75.89;99907.00;4965326;28;20023;-96
2023/01/14 10:32:20;;;;;;;15.02;8.15;;;;;;;5.47;75.25;99893.81;4949764;28;20042;-96
2023/01/14 10:34:52;;;;;;;14.48;8.00;;;;;;;5.38;75.13;99889.81;4950349;28;20040;-96
2023/01/14 10:37:18;;;;;;;16.83;7.28;;;;;;;5.31;75.09;99881.03;4936867;28;20030;-96
2023/01/14 10:40:04;;;;;;;14.10;7.13;;;;;;;5.46;74.13;99894.03;4933398;28;20130;-96
2023/01/14 10:42:30;;;;;;;13.65;7.13;;;;;;;5.28;74.17;99880.69;4952575;28;20532;-96
2023/01/14 10:45:10;;;;;;;12.55;6.80;;;;;;;5.53;74.06;99899.31;4950054;28;20074;-96
2023/01/14 10:47:46;;;;;;;14.60;7.15;;;;;;;5.66;73.25;99894.66;4932770;28;20034;-96
2023/01/14 10:50:22;;;;;;;11.55;6.78;;;;;;;5.58;73.03;99880.75;4934896;28;20047;-96
2023/01/14 10:52:52;;;;;;;15.40;8.75;;;;;;;5.65;72.97;99889.50;4931241;28;20039;-96
2023/01/14 10:55:28;;;;;;;13.43;6.85;;;;;;;5.74;72.68;99896.19;4932051;28;20046;-95
2023/01/14 10:58:01;;;;;;;17.13;7.28;;;;;;;5.73;72.47;99896.41;4949789;28;20027;-96
2023/01/14 11:00:35;;;;;;;12.15;6.97;;;;;;;5.55;72.24;99870.53;4959420;28;20046;-96
2023/01/14 11:03:07;;;;;;;11.73;6.70;;;;;;;5.66;72.09;99878.63;4971098;28;20038;-96
2023/01/14 11:05:36;;;;;;;14.25;6.68;;;;;;;5.74;72.78;99898.03;4967659;28;20061;-96
2023/01/14 11:08:19;;;;;;;13.35;6.90;;;;;;;5.63;72.93;99892.41;4989275;28;20031;-96
2023/01/14 11:10:44;;;;;;;12.38;7.40;;;;;;;5.53;72.88;99862.72;4986111;28;20053;-96
2023/01/14 11:13:41;;;;;;;11.23;5.97;;;;;;;5.77;72.01;99897.56;4966869;28;20084;-96
2023/01/14 11:16:29;;;;;;;8.68;5.07;;;;;;;5.64;71.83;99880.69;4975402;28;20042;-96
2023/01/14 11:19:02;;;;;;;11.23;6.82;;;;;;;5.62;71.86;99871.25;4967528;28;20026;-96
2023/01/14 11:21:31;;;;;;;15.75;6.88;;;;;;;5.64;73.07;99879.84;4981782;28;20062;-96
2023/01/14 11:24:02;;;;;;;24.95;10.70;;;;;;;5.70;72.63;99881.63;4965243;28;20129;-96
2023/01/14 11:26:33;;;;;;;10.93;5.85;;;;;;;5.77;71.92;99881.53;4980256;28;20030;-96
2023/01/14 11:29:11;;;;;;;9.82;6.07;;;;;;;5.69;72.30;99888.03;4965026;28;20033;-96
2023/01/14 11:31:38;;;;;;;11.65;6.57;;;;;;;5.77;71.80;99909.09;4982326;28;20113;-96
2023/01/14 11:34:04;;;;;;;9.07;4.78;;;;;;;5.74;71.41;99888.16;4966200;28;20014;-96
2023/01/14 11:36:33;;;;;;;8.32;5.13;;;;;;;5.76;71.41;99895.97;4967826;28;20053;-96
2023/01/14 11:38:59;;;;;;;14.23;6.90;;;;;;;5.68;72.14;99873.03;4968824;28;20034;-95
2023/01/14 11:41:41;;;;;;;9.93;6.45;;;;;;;5.64;72.30;99882.53;4958149;28;20119;-96
2023/01/14 11:44:15;;;;;;;9.85;5.53;;;;;;;5.82;71.58;99898.56;4948163;28;20757;-96
2023/01/14 11:46:50;;;;;;;11.95;5.38;;;;;;;5.58;73.02;99902.13;4975764;28;20101;-96
2023/01/14 11:49:17;;;;;;;11.15;6.05;;;;;;;5.37;73.17;99872.13;4966496;28;20404;-96
2023/01/14 11:52:09;;;;;;;11.30;6.07;;;;;;;5.34;73.74;99872.59;4980733;28;20128;-96
2023/01/14 11:54:42;;;;;;;17.48;7.78;;;;;;;5.40;73.65;99879.72;4981477;28;20026;-95
2023/01/14 11:57:15;;;;;;;14.10;6.15;;;;;;;5.47;73.25;99887.66;4965028;28;20459;-96
2023/01/14 11:59:41;;;;;;;11.32;6.43;;;;;;;5.34;73.16;99872.59;4981381;28;20025;-96
2023/01/14 12:02:20;;;;;;;13.10;5.70;;;;;;;5.38;72.91;99884.47;4970117;28;20030;-95
2023/01/14 12:05:03;;;;;;;10.25;5.10;;;;;;;5.53;72.42;99894.78;5003220;28;20030;-96
2023/01/14 12:07:58;;;;;;;8.63;4.68;;;;;;;5.57;72.40;99905.84;5001908;28;20068;-96
2023/01/14 12:10:36;;;;;;;9.02;5.15;;;;;;;5.56;72.35;99907.69;5014965;28;20026;-96
2023/01/14 12:19:30;;;;;;;14.13;7.47;;;;;;;5.61;72.40;99891.00;5004812;28;20063;-96
2023/01/14 12:22:19;;;;;;;12.82;5.53;;;;;;;5.66;72.04;99900.00;5001019;28;20077;-96
2023/01/14 12:25:02;;;;;;;8.10;3.90;;;;;;;5.34;72.37;99864.56;5001595;28;20026;-96
2023/01/14 12:27:56;;;;;;;6.72;4.15;;;;;;;5.59;72.35;99903.75;4986623;28;20037;-96
2023/01/14 12:30:48;;;;;;;20.75;7.80;;;;;;;5.59;73.40;99903.75;5018903;28;20030;-96
2023/01/14 12:33:37;;;;;;;13.15;7.28;;;;;;;5.42;73.17;99888.31;5017046;28;20029;-96
2023/01/14 12:36:16;;;;;;;10.00;5.63;;;;;;;5.40;72.51;99873.56;5000071;28;20030;-96
2023/01/14 12:48:00;;;;;;;8.68;4.32;;;;;;;5.50;72.99;99897.06;5017268;28;20076;-96
2023/01/14 12:50:28;;;;;;;6.40;3.90;;;;;;;5.54;72.52;99893.75;5000553;28;20042;-96
2023/01/14 12:53:00;;;;;;;6.75;4.63;;;;;;;5.69;73.23;99912.06;4986849;28;20060;-96
2023/01/14 12:55:31;;;;;;;7.13;4.18;;;;;;;5.75;72.79;99913.84;4986583;28;20030;-95
2023/01/14 12:58:03;;;;;;;11.05;5.90;;;;;;;5.65;72.93;99879.63;5017921;28;20129;-95
2023/01/14 13:00:36;;;;;;;16.33;8.00;;;;;;;5.77;72.68;99910.94;5005366;28;20033;-96
2023/01/14 13:03:07;;;;;;;19.58;8.75;;;;;;;5.72;73.03;99898.25;4999109;28;20069;-96
2023/01/14 13:05:41;;;;;;;11.23;7.00;;;;;;;5.74;72.85;99924.75;5000741;28;20048;-96
2023/01/14 13:08:08;;;;;;;6.10;4.32;;;;;;;5.61;72.62;99909.69;5003384;28;20030;-95
2023/01/14 13:11:03;;;;;;;7.65;4.88;;;;;;;5.46;73.30;99910.06;4987854;28;20464;-95
2023/01/14 13:13:34;;;;;;;27.90;12.57;;;;;;;5.38;74.00;99913.03;5005408;28;20065;-95
2023/01/14 13:19:12;;;;;;;12.20;5.85;;;;;;;5.33;74.08;99902.97;5005595;28;20037;-93
2023/01/14 13:22:13;;;;;;;11.77;6.25;;;;;;;5.11;75.51;99893.78;4994796;28;20100;-96
2023/01/14 13:24:46;;;;;;;12.48;6.40;;;;;;;5.21;74.76;99926.13;4984795;28;20026;-96
2023/01/14 13:27:33;;;;;;;13.07;6.63;;;;;;;5.27;74.65;99922.56;4987484;28;20122;-96
2023/01/14 13:30:17;;;;;;;14.82;7.65;;;;;;;5.45;74.61;99930.59;4970983;28;20050;-96
2023/01/14 13:33:17;;;;;;;10.57;5.07;;;;;;;5.53;73.42;99929.50;4987410;28;20030;-96
2023/01/14 13:35:52;;;;;;;8.45;5.45;;;;;;;5.43;72.98;99910.50;4965287;28;20046;-96
2023/01/14 13:38:48;;;;;;;10.43;6.85;;;;;;;5.54;73.33;99939.16;4964545;28;20027;-96
2023/01/14 13:41:37;;;;;;;8.98;5.57;;;;;;;5.45;72.95;99917.25;4980231;28;20453;-96
2023/01/14 13:44:28;;;;;;;10.40;5.70;;;;;;;5.62;72.99;99935.34;4963542;28;20031;-96
2023/01/14 13:47:22;;;;;;;9.18;5.88;;;;;;;5.64;73.02;99930.63;4959042;28;20121;-96
2023/01/14 13:50:23;;;;;;;7.45;4.90;;;;;;;5.68;71.85;99934.47;4950772;28;20049;-96
2023/01/14 13:53:05;;;;;;;7.82;5.22;;;;;;;5.58;72.28;99910.13;4948826;28;20074;-95
2023/01/14 13:55:39;;;;;;;24.02;10.85;;;;;;;5.69;72.79;99936.13;4930228;29;20038;-96
2023/01/14 13:58:30;;;;;;;10.60;5.80;;;;;;;5.44;73.43;99920.97;4929131;29;20028;-96
2023/01/14 14:01:26;;;;;;;9.55;6.20;;;;;;;5.56;72.59;99945.09;4928027;29;20140;-95
2023/01/14 14:03:57;;;;;;;8.70;5.25;;;;;;;5.49;72.11;99922.97;4944259;29;20093;-96
2023/01/14 14:06:23;;;;;;;9.13;5.95;;;;;;;5.59;72.34;99930.47;4936209;28;20038;-96
2023/01/14 14:09:03;;;;;;;9.57;5.93;;;;;;;5.65;71.48;99937.59;4964397;28;20123;-96
2023/01/14 14:12:00;;;;;;;9.15;5.40;;;;;;;5.60;71.82;99929.41;4934298;28;20649;-96